Alliance, NE

8:39 AM MDT on July 28, 2014 (GMT -0600)
Alliance Municipal (KAIA) Elev 3930 ft | 42.06 °N, 102.80 °W | Change Station

Current weather conditions updated 46 minutes ago

Clear
Clear
66 °F
Feels Like 66 °F
N
18
Wind Variable Wind from ESE

Today is forecast to be nearly the same temperature as yesterday.

Today
High -- | Low -- °F
--% Chance of Precip.
Yesterday
High -- | Low -- °F
Precip. -- in
5:40 AM 8:14 PM
New Moon, 2% visible
Pressure 30.35 in
Visibility 10.0 miles
Clouds Clear
Dew Point 52 °F
Humidity 60%
Rainfall 0.00 in
Snow Depth Not available.
UV 2 out of 12
Pollen 7.40 out of 12
Air Quality Not available.
Flu Activity Not available.
METAR KAIA 281353Z AUTO 11016KT 10SM CLR 19/11 A3035

More Conditions Fewer Conditions

Pressure 30.35 in
Visibility 10.0 miles
Clouds Clear
Dew Point 52 °F
Humidity 60%
Rainfall 0.00 in
Snow Depth Not available.
UV 2 out of 12
Pollen 7.40 out of 12
Air Quality Not available.
Flu Activity Not available.
METAR KAIA 281353Z AUTO 11016KT 10SM CLR 19/11 A3035

More Conditions Fewer Conditions

10-Day Weather Forecast

Almanac

Astronomy

Jul. 28, 2014 Rise Set
Actual Time 5:40 AM MDT 8:14 PM MDT
Civil Twilight 5:08 AM MDT 8:46 PM MDT
Nautical Twilight 4:28 AM MDT 9:26 PM MDT
Astronomical Twilight 3:43 AM MDT 10:11 PM MDT
Moon 7:27 AM MDT 8:54 PM MDT
Length of Visible Light 15h 37m
Length of Day
14h 33m
Tomorrow will be 2m 2s shorter.
New Moon, 2% of the Moon is Illuminated
Today
New Moon
Aug 3
First Quarter
Aug 10
Full
Aug 17
Last Quarter
Aug 25
New

Today's Extremes

State Highs State Lows

Community

WunderPhotos

Upload Photos

1,738,343 photos uploaded!

Nearby

Snow Depth

Station Depth Elevation
No new snow has been reported.

Earthquake Activity

City Distance Mag. Time & Date
No recent earthquake activity has been reported nearby.
Minimum magnitude displayed is 2.5.

Coastal Water Temperatures

Place Temperature
No Stations Reporting

Nearby Weather Stations

Station Location Temp. Dew Point Humidity Wind Precip. Elev Updated Type
Panhandle Coop/Box Butte Co, Alliance, NE 67.5 °F 54 °F 63% ENE  at  13.0 mph 0.00 in / hr 4140 ft 8:38 AM MDT Normal
Wayne Rd., Alliance, NE 66.8 °F 54 °F 63% SE  at  9.0 mph 0.00 in / hr 4091 ft 8:39 AM MDT Normal

Show More Stations Show Fewer Stations